Time;durP1;ratioP1;P1;durP2;ratioP2;P2;SDS_P1;SDS_P2;PMS_P1;PMS_P2;Temp;Humidity;BMP_temperature;BMP_pressure;BME280_temperature;BME280_humidity;BME280_pressure;Samples;Min_cycle;Max_cycle;Signal;HPM_P1;HPM_P2
2021/09/25 00:00:53;;;;;;;10.50;7.90;;;;;;;12.65;100.00;100554.44;4997539;28;20057;-65
2021/09/25 00:03:37;;;;;;;12.38;7.95;;;;;;;12.61;100.00;100555.72;4996303;28;20049;-66
2021/09/25 00:06:21;;;;;;;11.20;8.05;;;;;;;12.61;100.00;100557.56;4996471;28;20104;-65
2021/09/25 00:09:05;;;;;;;12.57;8.43;;;;;;;12.59;100.00;100560.38;4997209;28;20077;-65
2021/09/25 00:11:49;;;;;;;13.77;9.23;;;;;;;12.58;100.00;100552.53;4997076;28;20495;-65
2021/09/25 00:14:33;;;;;;;12.50;7.75;;;;;;;12.57;100.00;100557.03;4996356;28;20478;-65
2021/09/25 00:17:17;;;;;;;12.45;8.48;;;;;;;12.56;100.00;100551.81;4982706;28;20104;-65
2021/09/25 00:20:01;;;;;;;12.25;7.88;;;;;;;12.54;100.00;100545.78;4996840;28;20510;-65
2021/09/25 00:22:47;;;;;;;11.00;8.40;;;;;;;12.52;100.00;100543.28;4996457;28;20045;-65
2021/09/25 00:25:31;;;;;;;9.95;7.93;;;;;;;12.49;100.00;100545.41;4996309;28;20104;-67
2021/09/25 00:28:15;;;;;;;12.00;9.02;;;;;;;12.47;100.00;100542.00;4985814;23;20058;-65
2021/09/25 00:30:59;;;;;;;11.48;8.43;;;;;;;12.39;100.00;100540.09;4957062;29;20531;-65
2021/09/25 00:33:43;;;;;;;11.35;8.73;;;;;;;12.32;100.00;100547.03;4957928;29;20519;-65
2021/09/25 00:36:27;;;;;;;10.90;8.10;;;;;;;12.28;100.00;100540.28;4956911;29;20106;-65
2021/09/25 00:39:11;;;;;;;10.90;7.40;;;;;;;12.26;100.00;100547.63;4937994;29;20073;-65
2021/09/25 00:41:55;;;;;;;14.13;8.57;;;;;;;12.24;100.00;100549.63;4937785;29;20076;-67
2021/09/25 00:44:39;;;;;;;11.30;8.02;;;;;;;12.20;100.00;100553.56;4924494;29;20114;-67
2021/09/25 00:47:22;;;;;;;10.30;7.32;;;;;;;12.18;100.00;100557.38;4937543;29;20527;-67
2021/09/25 00:50:07;;;;;;;12.82;8.02;;;;;;;12.14;100.00;100559.50;4938749;29;20512;-68
2021/09/25 00:52:53;;;;;;;10.52;8.05;;;;;;;12.10;100.00;100565.28;4937980;29;20098;-67
2021/09/25 00:55:38;;;;;;;11.88;8.77;;;;;;;12.07;100.00;100566.41;4937752;29;20054;-67
2021/09/25 00:58:22;;;;;;;12.43;8.10;;;;;;;12.05;100.00;100570.22;4938373;29;20180;-66
2021/09/25 01:01:07;;;;;;;10.30;7.60;;;;;;;12.00;100.00;100567.97;4938596;29;20110;-67
2021/09/25 01:03:51;;;;;;;9.75;7.63;;;;;;;11.99;100.00;100562.81;4937436;29;20043;-67
2021/09/25 01:06:35;;;;;;;9.82;8.13;;;;;;;11.97;100.00;100557.59;4938458;29;20590;-67
2021/09/25 01:09:19;;;;;;;10.93;8.45;;;;;;;11.98;100.00;100559.28;4937395;29;20138;-67
2021/09/25 01:12:03;;;;;;;11.45;7.82;;;;;;;11.96;100.00;100566.59;4937647;29;20400;-67
2021/09/25 01:14:48;;;;;;;13.57;9.02;;;;;;;11.92;100.00;100562.53;4937076;29;20119;-67
2021/09/25 01:17:32;;;;;;;13.23;9.05;;;;;;;11.90;100.00;100561.81;4937164;29;20058;-67
2021/09/25 01:20:16;;;;;;;12.52;8.82;;;;;;;11.85;100.00;100560.56;4936869;29;20046;-67
2021/09/25 01:23:03;;;;;;;16.45;9.18;;;;;;;11.80;100.00;100566.34;4937036;29;20571;-67
2021/09/25 01:25:47;;;;;;;12.32;9.32;;;;;;;11.78;100.00;100568.34;4937115;29;20095;-67
2021/09/25 01:28:32;;;;;;;12.07;8.38;;;;;;;11.72;100.00;100568.94;4937633;29;20099;-67
2021/09/25 01:31:19;;;;;;;14.80;9.35;;;;;;;11.69;100.00;100579.06;4937692;29;20102;-67
2021/09/25 01:34:06;;;;;;;14.00;9.85;;;;;;;11.52;100.00;100583.25;4938212;29;20130;-67
2021/09/25 01:36:50;;;;;;;11.70;8.65;;;;;;;11.45;100.00;100581.31;4936845;29;20417;-67
2021/09/25 01:39:34;;;;;;;13.25;10.15;;;;;;;11.42;100.00;100582.44;4936900;29;20106;-67
2021/09/25 01:42:18;;;;;;;12.77;9.02;;;;;;;11.34;100.00;100574.28;4937858;29;20043;-67
2021/09/25 01:45:04;;;;;;;12.38;9.18;;;;;;;11.30;100.00;100583.56;4937048;29;20531;-67
2021/09/25 01:47:47;;;;;;;13.45;8.73;;;;;;;11.26;100.00;100582.16;4936576;29;20055;-67
2021/09/25 01:50:31;;;;;;;11.77;8.77;;;;;;;11.22;100.00;100579.91;4950540;29;20043;-67
2021/09/25 01:53:15;;;;;;;12.75;8.73;;;;;;;11.20;100.00;100566.72;4922790;29;20087;-67
2021/09/25 01:56:09;;;;;;;14.40;9.18;;;;;;;11.23;100.00;100571.75;4936596;29;20247;-67
2021/09/25 01:58:53;;;;;;;10.43;8.07;;;;;;;11.17;100.00;100577.66;4936178;29;20055;-67
2021/09/25 02:01:38;;;;;;;12.77;9.27;;;;;;;11.12;100.00;100566.56;4936114;29;20079;-67
2021/09/25 02:04:22;;;;;;;10.82;8.07;;;;;;;11.10;100.00;100568.53;4936137;29;20523;-67
2021/09/25 02:07:06;;;;;;;11.93;8.75;;;;;;;11.10;100.00;100575.69;4937320;29;20062;-67
2021/09/25 02:09:50;;;;;;;12.77;9.48;;;;;;;11.07;100.00;100582.13;4937103;29;20114;-67
2021/09/25 02:12:35;;;;;;;13.38;8.77;;;;;;;11.09;100.00;100574.88;4936293;29;20051;-67
2021/09/25 02:15:19;;;;;;;13.73;9.63;;;;;;;11.06;100.00;100569.78;4936267;29;20101;-67
2021/09/25 02:18:04;;;;;;;16.48;9.23;;;;;;;11.00;100.00;100575.69;4937088;29;20517;-67
2021/09/25 02:20:47;;;;;;;14.75;8.75;;;;;;;10.94;100.00;100578.91;4937033;29;20527;-67
2021/09/25 02:23:35;;;;;;;14.80;9.65;;;;;;;10.93;100.00;100574.56;4936126;29;20135;-67
2021/09/25 02:26:19;;;;;;;16.58;9.73;;;;;;;10.91;100.00;100573.88;4935798;29;20417;-67
2021/09/25 02:29:03;;;;;;;13.43;9.32;;;;;;;10.85;100.00;100569.06;4936808;29;20082;-67
2021/09/25 02:31:47;;;;;;;13.90;8.48;;;;;;;10.81;100.00;100575.69;4935979;29;20047;-67
2021/09/25 02:34:31;;;;;;;14.68;10.00;;;;;;;10.78;100.00;100565.28;4936670;29;20528;-67
2021/09/25 02:37:15;;;;;;;16.75;9.43;;;;;;;10.77;100.00;100558.25;4935696;29;20453;-67
2021/09/25 02:39:59;;;;;;;15.07;10.07;;;;;;;10.78;100.00;100565.28;4935684;29;20482;-67
2021/09/25 02:42:44;;;;;;;14.80;9.40;;;;;;;10.74;100.00;100547.03;4935552;29;20046;-67
2021/09/25 02:45:34;;;;;;;13.15;9.15;;;;;;;10.75;100.00;100549.56;4935746;29;20047;-67
2021/09/25 02:48:18;;;;;;;11.63;8.30;;;;;;;10.74;100.00;100541.72;4936405;29;20050;-67
2021/09/25 02:51:02;;;;;;;18.17;9.52;;;;;;;10.74;100.00;100539.03;4935671;29;20122;-67
2021/09/25 02:53:46;;;;;;;15.02;8.80;;;;;;;10.75;100.00;100535.41;4935610;29;20106;-67
2021/09/25 02:56:30;;;;;;;10.02;7.68;;;;;;;10.73;100.00;100532.84;4935596;29;20098;-67
2021/09/25 02:59:14;;;;;;;15.07;9.10;;;;;;;10.72;100.00;100539.16;4936215;29;20054;-68
2021/09/25 03:01:58;;;;;;;9.57;7.70;;;;;;;10.71;100.00;100537.50;4922053;29;20051;-67
2021/09/25 03:04:42;;;;;;;9.35;7.38;;;;;;;10.69;100.00;100535.94;4934685;29;20456;-67
2021/09/25 03:07:27;;;;;;;12.77;7.40;;;;;;;10.67;100.00;100535.22;4936582;29;20417;-67
2021/09/25 03:10:11;;;;;;;11.35;7.55;;;;;;;10.65;100.00;100540.69;4935403;29;20106;-67
2021/09/25 03:12:55;;;;;;;11.43;8.45;;;;;;;10.65;100.00;100539.88;4936343;29;20169;-67
2021/09/25 03:15:39;;;;;;;12.95;7.82;;;;;;;10.62;100.00;100532.97;4936342;29;20051;-67
2021/09/25 03:18:23;;;;;;;12.63;7.82;;;;;;;10.59;100.00;100535.94;4934954;29;20535;-67
2021/09/25 03:21:07;;;;;;;10.27;8.15;;;;;;;10.59;100.00;100529.75;4935208;29;20058;-67
2021/09/25 03:23:51;;;;;;;11.07;7.90;;;;;;;10.57;100.00;100532.53;4935531;29;20058;-67
2021/09/25 03:26:36;;;;;;;13.80;8.70;;;;;;;10.54;100.00;100542.66;4935922;29;20055;-68
2021/09/25 03:29:21;;;;;;;15.63;8.90;;;;;;;10.52;100.00;100537.44;4935236;29;20102;-67
2021/09/25 03:32:11;;;;;;;10.30;8.45;;;;;;;10.53;100.00;100544.47;4934898;29;20123;-67
2021/09/25 03:34:55;;;;;;;13.02;8.27;;;;;;;10.51;100.00;100541.09;4921990;29;20055;-67
2021/09/25 03:37:39;;;;;;;17.38;8.20;;;;;;;10.49;100.00;100547.53;4934810;29;20051;-67
2021/09/25 03:40:23;;;;;;;11.43;8.35;;;;;;;10.48;100.00;100546.72;4935068;29;20583;-67
2021/09/25 03:43:08;;;;;;;12.77;7.93;;;;;;;10.45;100.00;100535.47;4934899;29;20453;-67
2021/09/25 03:45:53;;;;;;;12.80;8.68;;;;;;;10.45;100.00;100536.31;4935306;29;20078;-67
2021/09/25 03:48:36;;;;;;;11.70;8.13;;;;;;;10.43;100.00;100543.59;4934799;29;20055;-67
2021/09/25 03:51:20;;;;;;;11.05;8.77;;;;;;;10.44;100.00;100534.63;4935051;29;20107;-67
2021/09/25 03:54:04;;;;;;;11.25;8.32;;;;;;;10.45;100.00;100541.63;4948547;29;20070;-67
2021/09/25 03:56:48;;;;;;;;;;;;;;;10.41;100.00;100534.91;4936295;29;20054;-67
2021/09/25 03:59:32;;;;;;;9.95;7.60;;;;;;;10.40;100.00;100543.03;4934687;29;19941;-67
2021/09/25 04:02:16;;;;;;;11.43;8.02;;;;;;;10.37;100.00;100541.50;4935531;29;20090;-67
2021/09/25 04:05:00;;;;;;;12.35;8.32;;;;;;;10.35;100.00;100535.44;4935912;29;20102;-67
2021/09/25 04:07:45;;;;;;;11.25;7.78;;;;;;;10.33;100.00;100540.06;4936090;29;20131;-67
2021/09/25 04:10:32;;;;;;;12.95;8.80;;;;;;;10.32;100.00;100550.84;4934570;29;20051;-67
2021/09/25 04:13:16;;;;;;;10.35;7.72;;;;;;;10.30;100.00;100536.81;4935782;29;20058;-67
2021/09/25 04:16:00;;;;;;;13.43;9.50;;;;;;;10.30;100.00;100542.16;4936863;29;20178;-67
2021/09/25 04:18:47;;;;;;;13.65;9.00;;;;;;;10.28;100.00;100544.13;4938285;29;20206;-67
2021/09/25 04:21:31;;;;;;;11.75;8.35;;;;;;;10.26;100.00;100544.25;4939323;29;20050;-67
2021/09/25 04:24:15;;;;;;;10.82;8.02;;;;;;;10.26;100.00;100540.75;4938296;29;20049;-67
2021/09/25 04:27:00;;;;;;;11.63;8.68;;;;;;;10.24;100.00;100543.53;4937924;29;20054;-67
2021/09/25 04:29:43;;;;;;;13.73;8.88;;;;;;;10.23;100.00;100553.50;4938190;29;20091;-67
2021/09/25 04:32:28;;;;;;;15.27;9.73;;;;;;;10.22;100.00;100557.16;4939128;29;20055;-67
2021/09/25 04:35:14;;;;;;;11.45;8.88;;;;;;;10.11;100.00;100558.06;4939069;29;20051;-67
2021/09/25 04:37:59;;;;;;;12.20;8.93;;;;;;;10.06;100.00;100559.44;4938616;29;20074;-67
2021/09/25 04:40:43;;;;;;;14.63;9.20;;;;;;;10.01;100.00;100567.81;4938113;29;20571;-67
2021/09/25 04:43:27;;;;;;;12.75;8.90;;;;;;;9.97;100.00;100570.91;4938640;29;20055;-67
2021/09/25 04:46:11;;;;;;;15.00;9.20;;;;;;;9.94;100.00;100555.16;4938555;29;20050;-67
2021/09/25 04:48:55;;;;;;;17.52;10.10;;;;;;;9.94;100.00;100560.50;4938463;29;20098;-67
2021/09/25 04:51:39;;;;;;;16.33;10.15;;;;;;;9.89;100.00;100562.72;4938732;29;20063;-67
2021/09/25 04:54:23;;;;;;;11.90;8.93;;;;;;;9.81;100.00;100557.22;4938425;29;20147;-67
2021/09/25 04:57:07;;;;;;;14.35;10.02;;;;;;;9.82;100.00;100561.56;4938332;29;20098;-67
2021/09/25 04:59:51;;;;;;;12.85;9.40;;;;;;;9.82;100.00;100558.91;4937666;29;20127;-67
2021/09/25 05:02:37;;;;;;;15.98;9.02;;;;;;;9.82;100.00;100556.22;4938772;29;20123;-67
2021/09/25 05:05:22;;;;;;;12.50;8.48;;;;;;;9.82;100.00;100556.22;4938228;29;20058;-67
2021/09/25 05:08:05;;;;;;;12.15;8.82;;;;;;;9.80;100.00;100552.88;4937262;29;20050;-67
2021/09/25 05:10:49;;;;;;;12.90;8.45;;;;;;;9.80;100.00;100552.88;4938381;29;20477;-67
2021/09/25 05:13:33;;;;;;;17.58;9.25;;;;;;;9.78;100.00;100549.50;4937390;29;20095;-67
2021/09/25 05:16:17;;;;;;;13.43;9.25;;;;;;;9.76;100.00;100554.94;4938344;29;20153;-67
2021/09/25 05:19:01;;;;;;;13.13;9.05;;;;;;;9.75;100.00;100550.59;4938205;29;20128;-67
2021/09/25 05:21:45;;;;;;;13.38;9.18;;;;;;;9.77;100.00;100547.81;4936906;29;20190;-67
2021/09/25 05:24:29;;;;;;;12.98;8.68;;;;;;;9.77;100.00;100545.97;4937455;29;20055;-67
2021/09/25 05:27:13;;;;;;;10.88;8.20;;;;;;;9.77;100.00;100547.81;4936302;29;20110;-67
2021/09/25 05:29:57;;;;;;;12.23;8.70;;;;;;;9.76;100.00;100552.28;4937713;29;20103;-67
2021/09/25 05:32:41;;;;;;;13.23;8.70;;;;;;;9.78;100.00;100555.66;4937017;29;20067;-67
2021/09/25 05:35:25;;;;;;;12.80;9.10;;;;;;;9.80;100.00;100544.88;4937272;29;20070;-66
2021/09/25 05:38:08;;;;;;;10.80;8.68;;;;;;;9.79;100.00;100543.19;4936819;29;20066;-67
2021/09/25 05:40:52;;;;;;;15.50;9.38;;;;;;;9.81;100.00;100544.72;4937003;29;20051;-67
2021/09/25 05:43:36;;;;;;;14.05;8.82;;;;;;;9.85;100.00;100546.16;4937842;29;20050;-67
2021/09/25 05:46:21;;;;;;;12.65;8.27;;;;;;;9.89;100.00;100558.22;4937666;29;20102;-67
2021/09/25 05:49:04;;;;;;;10.93;7.85;;;;;;;9.93;100.00;100553.47;4937358;29;20134;-67
2021/09/25 05:51:50;;;;;;;11.07;7.90;;;;;;;9.95;100.00;100557.72;4923288;29;20090;-67
2021/09/25 05:54:33;;;;;;;14.68;8.95;;;;;;;9.97;100.00;100558.41;4923187;29;20515;-67
2021/09/25 05:57:17;;;;;;;13.02;8.50;;;;;;;10.00;100.00;100562.63;4936493;29;20066;-67
2021/09/25 06:00:04;;;;;;;9.50;7.63;;;;;;;10.04;100.00;100551.63;4936482;29;20055;-67
2021/09/25 06:02:48;;;;;;;12.45;8.52;;;;;;;10.09;100.00;100553.88;4937183;29;20079;-67
2021/09/25 06:05:31;;;;;;;16.38;8.38;;;;;;;10.14;100.00;100547.16;4937178;29;20412;-67
2021/09/25 06:08:15;;;;;;;10.63;8.32;;;;;;;10.22;100.00;100554.47;4936294;29;20472;-67
2021/09/25 06:10:59;;;;;;;12.38;8.27;;;;;;;10.26;100.00;100560.22;4936377;29;20245;-67
2021/09/25 06:13:43;;;;;;;10.73;8.15;;;;;;;10.33;100.00;100569.38;4937248;29;20425;-67
2021/09/25 06:16:27;;;;;;;12.07;7.90;;;;;;;10.42;100.00;100568.56;4936222;29;20058;-67
2021/09/25 06:19:14;;;;;;;10.32;8.32;;;;;;;10.51;100.00;100565.09;4935949;29;20478;-67
2021/09/25 06:21:58;;;;;;;10.23;8.25;;;;;;;10.59;100.00;100570.59;4935799;29;20576;-67
2021/09/25 06:24:42;;;;;;;11.85;8.35;;;;;;;10.67;100.00;100562.72;4935851;29;20134;-67
2021/09/25 06:27:26;;;;;;;13.20;8.27;;;;;;;10.73;100.00;100572.84;4936756;29;20537;-67
2021/09/25 06:30:10;;;;;;;9.77;8.05;;;;;;;10.81;100.00;100565.00;4936047;29;20051;-66
2021/09/25 06:32:54;;;;;;;10.30;8.23;;;;;;;10.90;100.00;100566.84;4935676;29;20054;-67
2021/09/25 06:35:38;;;;;;;12.60;8.52;;;;;;;10.98;100.00;100572.31;4922566;29;20058;-67
2021/09/25 06:41:11;;;;;;;11.77;8.77;;;;;;;11.19;100.00;100577.53;4954984;28;20503;-67
2021/09/25 06:43:57;;;;;;;11.63;9.55;;;;;;;11.29;100.00;100573.84;4941835;29;20105;-67
2021/09/25 06:46:43;;;;;;;11.50;9.13;;;;;;;11.41;100.00;100574.56;4941466;29;20054;-67
2021/09/25 06:49:32;;;;;;;9.93;7.90;;;;;;;11.51;100.00;100576.25;4941888;29;20058;-68
2021/09/25 06:52:17;;;;;;;17.25;9.73;;;;;;;11.66;100.00;100574.84;4955466;28;20452;-67
2021/09/25 06:55:04;;;;;;;11.15;9.25;;;;;;;11.76;100.00;100562.31;4941595;29;20102;-66
2021/09/25 06:57:49;;;;;;;11.55;8.90;;;;;;;11.89;100.00;100570.00;4955132;29;20054;-66
2021/09/25 07:00:34;;;;;;;11.40;9.05;;;;;;;12.01;100.00;100575.03;4941579;29;20508;-67
2021/09/25 07:03:19;;;;;;;11.82;8.57;;;;;;;12.14;100.00;100569.34;4954934;28;20421;-66
2021/09/25 07:06:03;;;;;;;10.43;8.25;;;;;;;12.26;100.00;100569.00;4954560;28;20098;-67
2021/09/25 07:08:48;;;;;;;14.85;9.23;;;;;;;12.35;100.00;100573.47;4941257;29;20061;-67
2021/09/25 07:11:33;;;;;;;11.68;9.02;;;;;;;12.47;100.00;100576.78;4941546;29;20106;-66
2021/09/25 07:14:18;;;;;;;13.88;9.25;;;;;;;12.59;100.00;100580.97;4954705;28;20050;-66
2021/09/25 07:17:03;;;;;;;11.32;8.68;;;;;;;12.70;100.00;100589.59;4954854;28;20061;-67
2021/09/25 07:19:48;;;;;;;15.10;10.38;;;;;;;12.82;100.00;100589.25;4954234;28;20416;-67
2021/09/25 07:22:35;;;;;;;14.05;10.18;;;;;;;12.94;100.00;100592.59;4941419;29;20550;-67
2021/09/25 07:25:21;;;;;;;12.07;9.38;;;;;;;13.06;100.00;100592.19;4941332;29;20098;-66
2021/09/25 07:28:09;;;;;;;12.65;10.20;;;;;;;13.19;100.00;100598.03;4940934;28;20085;-67
2021/09/25 07:30:53;;;;;;;15.57;10.73;;;;;;;13.36;100.00;100596.34;4940685;29;20502;-67
2021/09/25 07:33:38;;;;;;;17.20;11.65;;;;;;;13.52;100.00;100596.47;4940829;29;20057;-67
2021/09/25 07:36:24;;;;;;;12.77;9.98;;;;;;;13.62;100.00;100594.53;4941114;29;20042;-67
2021/09/25 07:39:09;;;;;;;13.82;10.70;;;;;;;13.75;100.00;100595.00;4941034;29;20106;-67
2021/09/25 07:41:53;;;;;;;13.70;10.35;;;;;;;13.81;100.00;100589.00;4940926;29;20071;-67
2021/09/25 07:44:38;;;;;;;15.93;10.38;;;;;;;13.92;100.00;100596.78;4940895;29;20135;-67
2021/09/25 07:47:22;;;;;;;;;;;;;;;14.00;100.00;100591.47;4940998;29;20045;-67
2021/09/25 07:50:08;;;;;;;15.30;10.40;;;;;;;14.08;100.00;100591.53;4940550;28;19981;-67
2021/09/25 07:52:56;;;;;;;14.48;10.70;;;;;;;14.17;100.00;100585.25;4944496;29;20424;-66
2021/09/25 07:55:40;;;;;;;17.73;10.95;;;;;;;14.29;100.00;100590.16;4945065;29;20410;-66
2021/09/25 07:58:26;;;;;;;13.48;10.38;;;;;;;14.40;100.00;100591.72;4944427;28;20049;-67
2021/09/25 08:01:11;;;;;;;14.70;10.80;;;;;;;14.51;100.00;100591.44;4944389;29;20072;-67
2021/09/25 08:03:56;;;;;;;17.77;11.38;;;;;;;14.64;100.00;100594.50;4944290;29;20054;-67
2021/09/25 08:06:41;;;;;;;12.20;9.23;;;;;;;14.73;100.00;100588.16;4944665;29;20106;-67
2021/09/25 08:09:26;;;;;;;13.73;10.68;;;;;;;14.89;100.00;100588.22;4944253;29;20440;-67
2021/09/25 08:12:13;;;;;;;13.82;10.93;;;;;;;15.02;100.00;100591.25;4944235;29;20058;-67
2021/09/25 08:14:58;;;;;;;15.32;11.13;;;;;;;15.13;100.00;100588.25;4943929;29;20424;-68
2021/09/25 08:17:45;;;;;;;14.75;10.98;;;;;;;15.23;100.00;100586.25;4944205;29;20053;-67
2021/09/25 08:20:30;;;;;;;14.20;11.05;;;;;;;15.36;100.00;100583.94;4944120;29;20114;-67
2021/09/25 08:23:15;;;;;;;15.77;11.40;;;;;;;15.43;100.00;100582.28;4944375;29;20066;-67
2021/09/25 08:26:00;;;;;;;16.92;10.57;;;;;;;15.53;100.00;100588.34;4957364;29;20053;-67
2021/09/25 08:28:46;;;;;;;13.48;10.85;;;;;;;15.70;100.00;100586.31;4971066;28;20054;-66
2021/09/25 08:31:32;;;;;;;16.02;11.07;;;;;;;15.85;100.00;100579.22;4957646;29;20050;-67
2021/09/25 08:34:18;;;;;;;17.05;10.77;;;;;;;15.89;100.00;100585.97;4943981;29;20054;-66
2021/09/25 08:37:05;;;;;;;17.83;11.23;;;;;;;16.03;100.00;100582.56;4957621;29;20050;-66
2021/09/25 08:39:50;;;;;;;14.15;10.43;;;;;;;16.15;100.00;100589.25;4943632;29;20067;-66
2021/09/25 08:42:35;;;;;;;17.00;10.82;;;;;;;16.31;100.00;100586.53;4944089;29;20105;-67
2021/09/25 08:45:22;;;;;;;13.48;10.20;;;;;;;16.55;100.00;100591.00;4944096;29;20087;-66
2021/09/25 08:48:07;;;;;;;12.07;10.35;;;;;;;16.75;100.00;100582.34;4943390;28;20546;-67
2021/09/25 08:50:52;;;;;;;12.30;10.00;;;;;;;16.91;95.31;100576.84;4957022;29;20050;-67
2021/09/25 08:53:36;;;;;;;11.60;9.88;;;;;;;17.04;93.47;100571.75;4943668;29;20050;-67
2021/09/25 08:56:21;;;;;;;13.85;10.15;;;;;;;17.14;92.31;100575.03;4957020;29;20637;-66
2021/09/25 08:59:06;;;;;;;13.60;9.27;;;;;;;17.32;91.73;100578.25;4943359;29;20159;-67
2021/09/25 09:01:52;;;;;;;14.48;9.38;;;;;;;17.56;90.02;100569.16;4956065;28;20046;-67
2021/09/25 09:05:00;;;;;;;13.52;9.38;;;;;;;17.95;86.73;100573.38;4970644;28;20480;-67
2021/09/25 09:07:45;;;;;;;11.68;8.57;;;;;;;18.26;85.33;100579.44;4957148;29;20053;-67
2021/09/25 09:10:34;;;;;;;11.13;9.40;;;;;;;18.46;83.42;100569.78;4957217;28;20050;-66
2021/09/25 09:13:20;;;;;;;11.02;8.35;;;;;;;18.61;82.87;100570.59;4943306;29;20050;-67
2021/09/25 09:16:07;;;;;;;20.33;8.52;;;;;;;19.07;81.22;100569.31;4943383;29;20057;-66
2021/09/25 09:18:54;;;;;;;9.10;7.93;;;;;;;19.62;79.24;100570.28;4942760;29;20054;-67
2021/09/25 09:21:39;;;;;;;12.35;8.32;;;;;;;20.53;74.92;100570.94;4943284;29;20118;-66
2021/09/25 09:24:24;;;;;;;11.32;9.30;;;;;;;22.02;66.59;100565.88;4956303;29;20186;-65
2021/09/25 09:27:14;;;;;;;11.13;8.50;;;;;;;24.07;58.15;100554.41;4956254;29;20054;-64
2021/09/25 09:30:25;;;;;;;9.43;7.47;;;;;;;27.01;49.00;100548.56;4956148;28;20050;-64
2021/09/25 09:33:10;;;;;;;10.07;7.68;;;;;;;29.84;42.81;100546.66;4955760;29;20129;-64
2021/09/25 09:36:20;;;;;;;10.35;7.82;;;;;;;32.24;36.66;100539.28;4942096;29;20053;-64
2021/09/25 09:39:06;;;;;;;12.13;8.18;;;;;;;33.20;33.93;100544.16;4942064;29;20062;-65
2021/09/25 09:41:53;;;;;;;8.63;7.70;;;;;;;34.65;31.59;100549.31;4955297;29;20145;-65
2021/09/25 09:44:39;;;;;;;10.23;7.85;;;;;;;35.51;29.95;100557.34;4942044;29;20138;-65
2021/09/25 09:47:24;;;;;;;7.90;7.00;;;;;;;36.43;28.56;100555.22;4955578;28;20484;-65
2021/09/25 09:50:08;;;;;;;7.82;7.03;;;;;;;37.76;27.26;100545.38;4942108;29;20054;-65
2021/09/25 09:52:54;;;;;;;9.52;8.50;;;;;;;38.69;25.81;100554.31;4955145;29;20505;-65
2021/09/25 09:55:39;;;;;;;7.35;6.63;;;;;;;39.40;24.67;100543.50;4955392;28;20058;-65
2021/09/25 09:58:30;;;;;;;8.05;7.35;;;;;;;39.38;23.35;100536.66;4955288;28;20082;-65
2021/09/25 10:01:15;;;;;;;8.05;7.30;;;;;;;39.77;22.93;100534.50;4941696;29;20428;-65
2021/09/25 10:04:00;;;;;;;7.50;6.50;;;;;;;40.40;21.89;100526.16;4955072;28;20058;-65
2021/09/25 10:06:46;;;;;;;8.95;6.25;;;;;;;40.70;22.28;100519.47;4941752;29;20089;-65
2021/09/25 10:09:33;;;;;;;7.43;6.47;;;;;;;41.06;21.85;100518.94;4954613;28;20112;-65
2021/09/25 10:12:18;;;;;;;6.93;6.32;;;;;;;41.03;21.40;100514.84;4941360;29;20046;-65
2021/09/25 10:15:04;;;;;;;6.88;6.28;;;;;;;41.25;21.04;100517.34;4954293;28;20515;-65
2021/09/25 10:17:49;;;;;;;7.50;6.70;;;;;;;41.44;20.67;100526.06;4954765;29;20069;-65
2021/09/25 10:20:34;;;;;;;7.32;6.05;;;;;;;41.77;20.53;100510.16;4941082;29;20515;-65
2021/09/25 10:23:19;;;;;;;6.80;6.10;;;;;;;42.27;20.32;100521.16;4954814;28;20085;-65
2021/09/25 10:26:04;;;;;;;7.13;6.13;;;;;;;42.63;20.07;100513.63;4955643;29;20531;-65
2021/09/25 10:29:01;;;;;;;10.35;6.20;;;;;;;43.14;18.85;100507.28;4941189;29;20054;-65
2021/09/25 10:31:46;;;;;;;6.95;5.97;;;;;;;42.97;19.44;100501.94;4954363;28;20519;-65
2021/09/25 10:34:31;;;;;;;5.90;5.40;;;;;;;43.37;18.89;100489.59;4941008;29;20102;-65
2021/09/25 10:37:17;;;;;;;7.25;6.15;;;;;;;43.63;18.20;100489.13;4941072;29;20046;-65
2021/09/25 10:40:04;;;;;;;6.78;6.07;;;;;;;43.70;17.89;100489.34;4954435;29;20062;-65
2021/09/25 10:43:00;;;;;;;6.70;6.13;;;;;;;44.02;17.42;100494.66;4954666;29;20045;-65
2021/09/25 10:45:48;;;;;;;5.70;5.20;;;;;;;44.12;17.05;100499.00;4954367;29;20046;-65
2021/09/25 10:48:32;;;;;;;7.68;6.97;;;;;;;43.06;18.46;100499.81;4954303;28;20110;-65
2021/09/25 10:51:20;;;;;;;6.93;6.15;;;;;;;42.45;19.36;100498.16;4954141;29;20445;-65
2021/09/25 10:54:04;;;;;;;7.25;6.57;;;;;;;41.35;19.34;100483.38;4941114;29;20074;-65
2021/09/25 10:56:51;;;;;;;10.60;5.75;;;;;;;42.01;19.33;100487.00;4954255;29;20424;-65
2021/09/25 10:59:36;;;;;;;7.30;5.88;;;;;;;42.72;18.80;100484.28;4954354;28;20069;-65
2021/09/25 11:02:41;;;;;;;6.10;5.50;;;;;;;43.59;17.51;100483.41;4941128;29;20508;-65
2021/09/25 11:06:01;;;;;;;6.40;5.80;;;;;;;43.31;18.41;100474.16;4954306;29;20151;-65
2021/09/25 11:09:10;;;;;;;9.25;5.70;;;;;;;43.61;18.00;100471.84;4940842;29;20526;-65
2021/09/25 11:12:12;;;;;;;6.65;6.05;;;;;;;44.53;17.71;100471.16;4953998;29;20073;-65
2021/09/25 11:14:57;;;;;;;5.95;5.40;;;;;;;45.03;17.55;100467.50;4954165;28;20130;-65
2021/09/25 11:17:41;;;;;;;6.53;5.93;;;;;;;46.11;17.19;100464.97;4962610;22;20516;-68
2021/09/25 11:20:25;;;;;;;7.30;6.60;;;;;;;46.47;16.22;100470.06;4973288;28;20105;-70
2021/09/25 11:23:09;;;;;;;7.85;6.40;;;;;;;46.79;16.06;100471.41;4972935;28;20510;-69
2021/09/25 11:25:53;;;;;;;7.00;6.40;;;;;;;46.83;15.93;100468.63;4973068;28;20054;-71
2021/09/25 11:28:37;;;;;;;9.70;6.07;;;;;;;47.07;16.07;100457.69;4986262;28;20101;-70
2021/09/25 11:31:21;;;;;;;7.68;6.35;;;;;;;47.42;15.96;100458.19;4986420;28;20049;-70
2021/09/25 11:34:21;;;;;;;7.72;6.43;;;;;;;47.72;14.92;100444.84;4973570;28;20056;-70
2021/09/25 11:37:05;;;;;;;7.95;6.70;;;;;;;48.14;15.37;100445.28;4986566;28;20507;-71
2021/09/25 11:39:50;;;;;;;7.93;7.13;;;;;;;48.15;15.45;100435.59;4972622;28;20054;-71
2021/09/25 11:42:34;;;;;;;7.88;7.18;;;;;;;48.23;15.61;100430.78;4972689;28;20411;-71
2021/09/25 11:45:18;;;;;;;8.85;6.70;;;;;;;47.51;15.93;100441.75;4974168;28;20133;-70
2021/09/25 11:48:03;;;;;;;7.63;6.90;;;;;;;47.57;15.30;100433.75;4972450;28;20522;-71
2021/09/25 11:50:54;;;;;;;7.45;6.75;;;;;;;47.35;15.33;100423.41;4972734;28;20135;-70
2021/09/25 11:53:43;;;;;;;8.98;6.43;;;;;;;47.44;15.81;100421.88;4986613;28;20197;-71
2021/09/25 11:56:28;;;;;;;7.35;6.65;;;;;;;47.24;15.86;100411.16;4972489;28;20209;-70
2021/09/25 11:59:11;;;;;;;6.65;5.80;;;;;;;46.93;15.62;100417.16;4972538;28;20061;-69
2021/09/25 12:01:55;;;;;;;6.72;6.03;;;;;;;46.88;15.53;100415.50;4973493;28;20065;-71
2021/09/25 12:04:41;;;;;;;7.00;6.20;;;;;;;47.10;15.28;100405.31;4973660;28;20551;-71
2021/09/25 12:07:41;;;;;;;8.27;6.18;;;;;;;46.41;16.24;100414.38;4986079;28;20053;-71
2021/09/25 12:10:31;;;;;;;6.45;5.63;;;;;;;46.36;15.55;100420.31;4958839;28;20049;-70
2021/09/25 12:13:19;;;;;;;6.45;5.82;;;;;;;46.40;15.70;100409.88;4973564;28;20045;-71
2021/09/25 12:16:05;;;;;;;6.18;5.55;;;;;;;46.18;16.03;100402.25;4973623;28;20518;-71
2021/09/25 12:18:51;;;;;;;6.00;5.40;;;;;;;46.43;15.59;100409.94;4973114;28;20535;-71
2021/09/25 12:21:35;;;;;;;6.07;5.53;;;;;;;46.31;15.79;100401.72;4986115;28;20049;-70
2021/09/25 12:24:19;;;;;;;6.72;6.05;;;;;;;45.80;16.02;100407.22;4973552;28;20415;-70
2021/09/25 12:27:03;;;;;;;8.23;6.00;;;;;;;44.87;16.16;100402.06;4986209;28;20101;-70
2021/09/25 12:29:47;;;;;;;8.07;6.15;;;;;;;44.31;16.98;100401.50;4985925;28;20085;-70
2021/09/25 12:32:31;;;;;;;6.03;5.47;;;;;;;43.04;18.10;100389.94;4972214;28;20049;-70
2021/09/25 12:35:21;;;;;;;6.60;5.30;;;;;;;42.85;18.47;100386.94;4986174;28;20085;-70
2021/09/25 12:38:12;;;;;;;5.82;5.30;;;;;;;43.70;18.11;100380.66;4975978;28;20050;-70
2021/09/25 12:41:04;;;;;;;7.38;5.53;;;;;;;43.58;18.36;100369.47;4975630;28;20513;-70